sensor_id;sensor_type;location;lat;lon;timestamp;P1;durP1;ratioP1;P2;durP2;ratioP2
36989;SDS011;22898;52.102;5.776;2022-08-19T00:01:30;2.25;;;1.67;;
36989;SDS011;22898;52.102;5.776;2022-08-19T00:03:57;1.80;;;1.52;;
36989;SDS011;22898;52.102;5.776;2022-08-19T00:06:23;2.33;;;1.70;;
36989;SDS011;22898;52.102;5.776;2022-08-19T00:08:49;1.20;;;1.13;;
36989;SDS011;22898;52.102;5.776;2022-08-19T00:11:16;2.25;;;1.70;;
36989;SDS011;22898;52.102;5.776;2022-08-19T00:13:42;1.30;;;1.20;;
36989;SDS011;22898;52.102;5.776;2022-08-19T00:16:07;1.60;;;1.48;;
36989;SDS011;22898;52.102;5.776;2022-08-19T00:18:33;2.28;;;1.10;;
36989;SDS011;22898;52.102;5.776;2022-08-19T00:20:59;1.38;;;1.15;;
36989;SDS011;22898;52.102;5.776;2022-08-19T00:23:25;1.50;;;1.40;;
36989;SDS011;22898;52.102;5.776;2022-08-19T00:25:52;1.55;;;1.33;;
36989;SDS011;22898;52.102;5.776;2022-08-19T00:28:18;1.52;;;1.40;;
36989;SDS011;22898;52.102;5.776;2022-08-19T00:30:45;2.88;;;1.73;;
36989;SDS011;22898;52.102;5.776;2022-08-19T00:33:14;1.50;;;1.40;;
36989;SDS011;22898;52.102;5.776;2022-08-19T00:35:41;1.85;;;1.60;;
36989;SDS011;22898;52.102;5.776;2022-08-19T00:38:06;1.75;;;1.65;;
36989;SDS011;22898;52.102;5.776;2022-08-19T00:40:32;3.10;;;1.55;;
36989;SDS011;22898;52.102;5.776;2022-08-19T00:42:58;2.08;;;1.88;;
36989;SDS011;22898;52.102;5.776;2022-08-19T00:45:25;1.40;;;1.30;;
36989;SDS011;22898;52.102;5.776;2022-08-19T00:47:52;1.73;;;1.63;;
36989;SDS011;22898;52.102;5.776;2022-08-19T00:50:18;1.83;;;1.73;;
36989;SDS011;22898;52.102;5.776;2022-08-19T00:52:46;1.15;;;1.08;;
36989;SDS011;22898;52.102;5.776;2022-08-19T00:55:16;1.55;;;1.45;;
36989;SDS011;22898;52.102;5.776;2022-08-19T00:57:53;1.65;;;1.50;;
36989;SDS011;22898;52.102;5.776;2022-08-19T01:00:29;1.48;;;1.38;;
36989;SDS011;22898;52.102;5.776;2022-08-19T01:02:55;1.38;;;1.27;;
36989;SDS011;22898;52.102;5.776;2022-08-19T01:05:22;1.30;;;1.20;;
36989;SDS011;22898;52.102;5.776;2022-08-19T01:07:53;1.25;;;1.15;;
36989;SDS011;22898;52.102;5.776;2022-08-19T01:10:21;1.50;;;1.40;;
36989;SDS011;22898;52.102;5.776;2022-08-19T01:12:50;2.25;;;1.67;;
36989;SDS011;22898;52.102;5.776;2022-08-19T01:15:18;1.10;;;1.10;;
36989;SDS011;22898;52.102;5.776;2022-08-19T01:17:47;1.10;;;1.00;;
36989;SDS011;22898;52.102;5.776;2022-08-19T01:20:15;1.55;;;1.45;;
36989;SDS011;22898;52.102;5.776;2022-08-19T01:22:45;2.17;;;2.00;;
36989;SDS011;22898;52.102;5.776;2022-08-19T01:25:17;1.42;;;1.33;;
36989;SDS011;22898;52.102;5.776;2022-08-19T01:27:46;1.70;;;1.60;;
36989;SDS011;22898;52.102;5.776;2022-08-19T01:30:14;2.40;;;2.15;;
36989;SDS011;22898;52.102;5.776;2022-08-19T01:32:44;1.40;;;1.30;;
36989;SDS011;22898;52.102;5.776;2022-08-19T01:35:10;1.45;;;1.35;;
36989;SDS011;22898;52.102;5.776;2022-08-19T01:37:44;2.53;;;1.85;;
36989;SDS011;22898;52.102;5.776;2022-08-19T01:40:14;1.15;;;1.15;;
36989;SDS011;22898;52.102;5.776;2022-08-19T01:42:41;1.67;;;1.52;;
36989;SDS011;22898;52.102;5.776;2022-08-19T01:45:07;1.83;;;1.58;;
36989;SDS011;22898;52.102;5.776;2022-08-19T01:47:34;1.60;;;1.50;;
36989;SDS011;22898;52.102;5.776;2022-08-19T01:50:01;1.60;;;1.50;;
36989;SDS011;22898;52.102;5.776;2022-08-19T01:52:30;0.90;;;0.90;;
36989;SDS011;22898;52.102;5.776;2022-08-19T01:54:55;1.55;;;1.45;;
36989;SDS011;22898;52.102;5.776;2022-08-19T01:57:21;1.38;;;1.27;;
36989;SDS011;22898;52.102;5.776;2022-08-19T01:59:46;3.35;;;1.50;;
36989;SDS011;22898;52.102;5.776;2022-08-19T02:02:12;1.98;;;1.77;;
36989;SDS011;22898;52.102;5.776;2022-08-19T02:04:38;1.60;;;1.50;;
36989;SDS011;22898;52.102;5.776;2022-08-19T02:07:05;1.15;;;1.08;;
36989;SDS011;22898;52.102;5.776;2022-08-19T02:09:33;1.33;;;1.23;;
36989;SDS011;22898;52.102;5.776;2022-08-19T02:11:59;1.40;;;1.30;;
36989;SDS011;22898;52.102;5.776;2022-08-19T02:14:25;1.65;;;1.55;;
36989;SDS011;22898;52.102;5.776;2022-08-19T02:16:51;1.33;;;1.17;;
36989;SDS011;22898;52.102;5.776;2022-08-19T02:19:17;1.45;;;1.35;;
36989;SDS011;22898;52.102;5.776;2022-08-19T02:21:43;2.85;;;2.22;;
36989;SDS011;22898;52.102;5.776;2022-08-19T02:24:09;1.45;;;1.35;;
36989;SDS011;22898;52.102;5.776;2022-08-19T02:26:34;1.63;;;1.52;;
36989;SDS011;22898;52.102;5.776;2022-08-19T02:29:00;2.20;;;1.88;;
36989;SDS011;22898;52.102;5.776;2022-08-19T02:31:26;2.20;;;1.90;;
36989;SDS011;22898;52.102;5.776;2022-08-19T02:33:52;1.73;;;1.60;;
36989;SDS011;22898;52.102;5.776;2022-08-19T02:36:19;2.92;;;1.63;;
36989;SDS011;22898;52.102;5.776;2022-08-19T02:38:44;2.20;;;1.95;;
36989;SDS011;22898;52.102;5.776;2022-08-19T02:41:12;1.83;;;1.33;;
36989;SDS011;22898;52.102;5.776;2022-08-19T02:43:42;1.25;;;1.15;;
36989;SDS011;22898;52.102;5.776;2022-08-19T02:48:48;1.55;;;1.45;;
36989;SDS011;22898;52.102;5.776;2022-08-19T02:51:15;1.70;;;1.60;;
36989;SDS011;22898;52.102;5.776;2022-08-19T02:53:42;2.00;;;1.73;;
36989;SDS011;22898;52.102;5.776;2022-08-19T02:56:09;2.05;;;1.85;;
36989;SDS011;22898;52.102;5.776;2022-08-19T02:58:34;1.58;;;1.48;;
36989;SDS011;22898;52.102;5.776;2022-08-19T03:01:00;1.58;;;1.48;;
36989;SDS011;22898;52.102;5.776;2022-08-19T03:03:26;2.22;;;1.83;;
36989;SDS011;22898;52.102;5.776;2022-08-19T03:05:51;2.25;;;1.90;;
36989;SDS011;22898;52.102;5.776;2022-08-19T03:08:27;1.67;;;1.48;;
36989;SDS011;22898;52.102;5.776;2022-08-19T03:10:52;2.08;;;1.83;;
36989;SDS011;22898;52.102;5.776;2022-08-19T03:13:18;2.38;;;2.17;;
36989;SDS011;22898;52.102;5.776;2022-08-19T03:15:44;2.15;;;1.95;;
36989;SDS011;22898;52.102;5.776;2022-08-19T03:18:12;1.27;;;1.17;;
36989;SDS011;22898;52.102;5.776;2022-08-19T03:20:45;1.58;;;1.48;;
36989;SDS011;22898;52.102;5.776;2022-08-19T03:23:15;1.55;;;1.20;;
36989;SDS011;22898;52.102;5.776;2022-08-19T03:25:42;2.58;;;1.90;;
36989;SDS011;22898;52.102;5.776;2022-08-19T03:28:13;1.58;;;1.45;;
36989;SDS011;22898;52.102;5.776;2022-08-19T03:30:40;1.48;;;1.35;;
36989;SDS011;22898;52.102;5.776;2022-08-19T03:33:07;2.45;;;1.95;;
36989;SDS011;22898;52.102;5.776;2022-08-19T03:35:34;1.40;;;1.30;;
36989;SDS011;22898;52.102;5.776;2022-08-19T03:38:01;3.90;;;1.35;;
36989;SDS011;22898;52.102;5.776;2022-08-19T03:40:28;1.40;;;1.30;;
36989;SDS011;22898;52.102;5.776;2022-08-19T03:42:55;2.30;;;2.00;;
36989;SDS011;22898;52.102;5.776;2022-08-19T03:45:21;1.13;;;1.05;;
36989;SDS011;22898;52.102;5.776;2022-08-19T03:47:47;1.70;;;1.60;;
36989;SDS011;22898;52.102;5.776;2022-08-19T03:50:13;2.03;;;1.77;;
36989;SDS011;22898;52.102;5.776;2022-08-19T03:52:38;1.50;;;1.40;;
36989;SDS011;22898;52.102;5.776;2022-08-19T03:55:04;2.95;;;1.85;;
36989;SDS011;22898;52.102;5.776;2022-08-19T03:57:30;2.63;;;1.95;;
36989;SDS011;22898;52.102;5.776;2022-08-19T03:59:57;1.92;;;1.65;;
36989;SDS011;22898;52.102;5.776;2022-08-19T04:02:22;1.50;;;1.38;;
36989;SDS011;22898;52.102;5.776;2022-08-19T04:04:48;1.40;;;1.30;;
36989;SDS011;22898;52.102;5.776;2022-08-19T04:07:14;2.13;;;1.70;;
36989;SDS011;22898;52.102;5.776;2022-08-19T04:09:41;2.45;;;1.83;;
36989;SDS011;22898;52.102;5.776;2022-08-19T04:12:07;1.55;;;1.45;;
36989;SDS011;22898;52.102;5.776;2022-08-19T04:14:33;2.08;;;1.65;;
36989;SDS011;22898;52.102;5.776;2022-08-19T04:17:00;2.03;;;1.83;;
36989;SDS011;22898;52.102;5.776;2022-08-19T04:19:29;1.63;;;1.52;;
36989;SDS011;22898;52.102;5.776;2022-08-19T04:21:55;2.45;;;2.25;;
36989;SDS011;22898;52.102;5.776;2022-08-19T04:24:21;1.20;;;1.17;;
36989;SDS011;22898;52.102;5.776;2022-08-19T04:26:48;2.20;;;1.80;;
36989;SDS011;22898;52.102;5.776;2022-08-19T04:29:15;2.22;;;2.03;;
36989;SDS011;22898;52.102;5.776;2022-08-19T04:31:46;2.05;;;1.90;;
36989;SDS011;22898;52.102;5.776;2022-08-19T04:34:15;1.83;;;1.73;;
36989;SDS011;22898;52.102;5.776;2022-08-19T04:36:43;2.22;;;2.03;;
36989;SDS011;22898;52.102;5.776;2022-08-19T04:39:15;1.48;;;1.38;;
36989;SDS011;22898;52.102;5.776;2022-08-19T04:41:43;3.40;;;2.97;;
36989;SDS011;22898;52.102;5.776;2022-08-19T04:44:29;2.05;;;1.85;;
36989;SDS011;22898;52.102;5.776;2022-08-19T04:46:59;3.83;;;2.70;;
36989;SDS011;22898;52.102;5.776;2022-08-19T04:49:25;2.30;;;2.10;;
36989;SDS011;22898;52.102;5.776;2022-08-19T04:51:51;4.43;;;2.80;;
36989;SDS011;22898;52.102;5.776;2022-08-19T04:54:19;2.08;;;1.83;;
36989;SDS011;22898;52.102;5.776;2022-08-19T04:56:47;2.70;;;2.00;;
36989;SDS011;22898;52.102;5.776;2022-08-19T04:59:14;1.83;;;1.67;;
36989;SDS011;22898;52.102;5.776;2022-08-19T05:01:41;1.98;;;1.80;;
36989;SDS011;22898;52.102;5.776;2022-08-19T05:04:08;2.40;;;1.70;;
36989;SDS011;22898;52.102;5.776;2022-08-19T05:06:35;4.00;;;3.15;;
36989;SDS011;22898;52.102;5.776;2022-08-19T05:09:02;2.60;;;2.40;;
36989;SDS011;22898;52.102;5.776;2022-08-19T05:11:34;2.13;;;1.92;;
36989;SDS011;22898;52.102;5.776;2022-08-19T05:14:03;2.85;;;1.95;;
36989;SDS011;22898;52.102;5.776;2022-08-19T05:16:29;2.53;;;2.17;;
36989;SDS011;22898;52.102;5.776;2022-08-19T05:18:55;1.95;;;1.67;;
36989;SDS011;22898;52.102;5.776;2022-08-19T05:24:24;2.80;;;2.60;;
36989;SDS011;22898;52.102;5.776;2022-08-19T05:26:52;2.08;;;1.88;;
36989;SDS011;22898;52.102;5.776;2022-08-19T05:29:21;2.08;;;1.88;;
36989;SDS011;22898;52.102;5.776;2022-08-19T05:31:48;2.13;;;1.95;;
36989;SDS011;22898;52.102;5.776;2022-08-19T05:34:14;2.55;;;1.77;;
36989;SDS011;22898;52.102;5.776;2022-08-19T05:36:42;2.65;;;2.30;;
36989;SDS011;22898;52.102;5.776;2022-08-19T05:39:11;2.20;;;1.85;;
36989;SDS011;22898;52.102;5.776;2022-08-19T05:41:41;2.78;;;2.40;;
36989;SDS011;22898;52.102;5.776;2022-08-19T05:44:08;2.95;;;2.75;;
36989;SDS011;22898;52.102;5.776;2022-08-19T05:46:35;1.23;;;1.23;;
36989;SDS011;22898;52.102;5.776;2022-08-19T05:49:03;2.10;;;1.85;;
36989;SDS011;22898;52.102;5.776;2022-08-19T05:51:31;2.10;;;1.90;;
36989;SDS011;22898;52.102;5.776;2022-08-19T05:53:57;1.98;;;1.88;;
36989;SDS011;22898;52.102;5.776;2022-08-19T05:56:23;2.33;;;1.98;;
36989;SDS011;22898;52.102;5.776;2022-08-19T05:58:49;2.90;;;2.10;;
36989;SDS011;22898;52.102;5.776;2022-08-19T06:01:15;3.22;;;2.58;;
36989;SDS011;22898;52.102;5.776;2022-08-19T06:03:43;2.33;;;2.13;;
36989;SDS011;22898;52.102;5.776;2022-08-19T06:06:10;2.13;;;2.03;;
36989;SDS011;22898;52.102;5.776;2022-08-19T06:08:37;2.42;;;2.22;;
36989;SDS011;22898;52.102;5.776;2022-08-19T06:11:20;2.85;;;2.65;;
36989;SDS011;22898;52.102;5.776;2022-08-19T06:13:46;2.58;;;2.05;;
36989;SDS011;22898;52.102;5.776;2022-08-19T06:16:16;6.10;;;4.03;;
36989;SDS011;22898;52.102;5.776;2022-08-19T06:18:47;3.67;;;3.15;;
36989;SDS011;22898;52.102;5.776;2022-08-19T06:21:13;5.25;;;4.75;;
36989;SDS011;22898;52.102;5.776;2022-08-19T06:23:39;4.70;;;3.80;;
36989;SDS011;22898;52.102;5.776;2022-08-19T06:26:05;4.47;;;4.05;;
36989;SDS011;22898;52.102;5.776;2022-08-19T06:28:31;5.00;;;3.85;;
36989;SDS011;22898;52.102;5.776;2022-08-19T06:30:57;2.88;;;2.40;;
36989;SDS011;22898;52.102;5.776;2022-08-19T06:33:23;7.85;;;5.07;;
36989;SDS011;22898;52.102;5.776;2022-08-19T06:35:49;5.13;;;4.63;;
36989;SDS011;22898;52.102;5.776;2022-08-19T06:38:14;4.75;;;4.25;;
36989;SDS011;22898;52.102;5.776;2022-08-19T06:40:40;5.72;;;4.10;;
36989;SDS011;22898;52.102;5.776;2022-08-19T06:43:05;4.97;;;4.47;;
36989;SDS011;22898;52.102;5.776;2022-08-19T06:45:31;6.57;;;5.57;;
36989;SDS011;22898;52.102;5.776;2022-08-19T06:47:56;7.65;;;5.70;;
36989;SDS011;22898;52.102;5.776;2022-08-19T06:50:22;6.60;;;5.90;;
36989;SDS011;22898;52.102;5.776;2022-08-19T06:52:48;7.20;;;6.15;;
36989;SDS011;22898;52.102;5.776;2022-08-19T06:55:14;6.97;;;5.35;;
36989;SDS011;22898;52.102;5.776;2022-08-19T06:57:40;8.90;;;7.70;;
36989;SDS011;22898;52.102;5.776;2022-08-19T07:00:07;13.57;;;7.13;;
36989;SDS011;22898;52.102;5.776;2022-08-19T07:02:38;12.38;;;8.52;;
36989;SDS011;22898;52.102;5.776;2022-08-19T07:05:05;14.35;;;9.13;;
36989;SDS011;22898;52.102;5.776;2022-08-19T07:07:31;8.65;;;7.45;;
36989;SDS011;22898;52.102;5.776;2022-08-19T07:09:56;12.98;;;9.18;;
36989;SDS011;22898;52.102;5.776;2022-08-19T07:12:22;15.65;;;9.85;;
36989;SDS011;22898;52.102;5.776;2022-08-19T07:14:47;14.30;;;6.78;;
36989;SDS011;22898;52.102;5.776;2022-08-19T07:17:14;14.65;;;9.27;;
36989;SDS011;22898;52.102;5.776;2022-08-19T07:19:40;10.32;;;6.95;;
36989;SDS011;22898;52.102;5.776;2022-08-19T07:22:08;10.60;;;8.15;;
36989;SDS011;22898;52.102;5.776;2022-08-19T07:24:35;11.90;;;8.07;;
36989;SDS011;22898;52.102;5.776;2022-08-19T07:27:02;17.50;;;10.30;;
36989;SDS011;22898;52.102;5.776;2022-08-19T07:29:29;10.02;;;7.20;;
36989;SDS011;22898;52.102;5.776;2022-08-19T07:31:58;12.48;;;8.50;;
36989;SDS011;22898;52.102;5.776;2022-08-19T07:34:25;9.70;;;8.25;;
36989;SDS011;22898;52.102;5.776;2022-08-19T07:36:52;13.70;;;9.45;;
36989;SDS011;22898;52.102;5.776;2022-08-19T07:39:19;15.32;;;8.65;;
36989;SDS011;22898;52.102;5.776;2022-08-19T07:41:48;13.43;;;9.95;;
36989;SDS011;22898;52.102;5.776;2022-08-19T07:44:14;12.77;;;8.10;;
36989;SDS011;22898;52.102;5.776;2022-08-19T07:46:42;14.77;;;8.30;;
36989;SDS011;22898;52.102;5.776;2022-08-19T07:49:09;12.43;;;8.32;;
36989;SDS011;22898;52.102;5.776;2022-08-19T07:51:42;13.98;;;7.00;;
36989;SDS011;22898;52.102;5.776;2022-08-19T07:54:09;16.58;;;9.45;;
36989;SDS011;22898;52.102;5.776;2022-08-19T07:56:36;12.15;;;8.18;;
36989;SDS011;22898;52.102;5.776;2022-08-19T07:59:02;14.77;;;8.73;;
36989;SDS011;22898;52.102;5.776;2022-08-19T08:01:28;12.57;;;7.15;;
36989;SDS011;22898;52.102;5.776;2022-08-19T08:03:54;10.57;;;8.18;;
36989;SDS011;22898;52.102;5.776;2022-08-19T08:06:39;11.10;;;7.20;;
36989;SDS011;22898;52.102;5.776;2022-08-19T08:09:41;11.13;;;8.98;;
36989;SDS011;22898;52.102;5.776;2022-08-19T08:12:10;16.05;;;10.35;;
36989;SDS011;22898;52.102;5.776;2022-08-19T08:14:39;14.95;;;10.38;;
36989;SDS011;22898;52.102;5.776;2022-08-19T08:17:14;10.90;;;8.25;;
36989;SDS011;22898;52.102;5.776;2022-08-19T08:19:41;16.90;;;9.90;;
36989;SDS011;22898;52.102;5.776;2022-08-19T08:22:08;11.98;;;9.43;;
36989;SDS011;22898;52.102;5.776;2022-08-19T08:24:55;11.77;;;7.65;;
36989;SDS011;22898;52.102;5.776;2022-08-19T08:27:23;12.48;;;8.55;;
36989;SDS011;22898;52.102;5.776;2022-08-19T08:29:49;11.60;;;8.05;;
36989;SDS011;22898;52.102;5.776;2022-08-19T08:32:15;10.70;;;8.15;;
36989;SDS011;22898;52.102;5.776;2022-08-19T08:34:41;17.35;;;9.00;;
36989;SDS011;22898;52.102;5.776;2022-08-19T08:37:07;13.32;;;8.77;;
36989;SDS011;22898;52.102;5.776;2022-08-19T08:39:32;12.63;;;8.73;;
36989;SDS011;22898;52.102;5.776;2022-08-19T08:42:05;9.30;;;8.02;;
36989;SDS011;22898;52.102;5.776;2022-08-19T08:47:37;9.13;;;6.35;;
36989;SDS011;22898;52.102;5.776;2022-08-19T08:52:39;15.18;;;6.43;;
36989;SDS011;22898;52.102;5.776;2022-08-19T08:55:10;13.88;;;6.50;;
36989;SDS011;22898;52.102;5.776;2022-08-19T08:57:39;7.45;;;4.88;;
36989;SDS011;22898;52.102;5.776;2022-08-19T09:00:15;11.20;;;7.20;;
36989;SDS011;22898;52.102;5.776;2022-08-19T09:02:54;8.63;;;5.47;;
36989;SDS011;22898;52.102;5.776;2022-08-19T09:05:22;9.57;;;5.38;;
36989;SDS011;22898;52.102;5.776;2022-08-19T09:10:46;8.80;;;5.75;;
36989;SDS011;22898;52.102;5.776;2022-08-19T09:16:06;8.52;;;6.65;;
36989;SDS011;22898;52.102;5.776;2022-08-19T09:18:39;9.50;;;6.80;;
36989;SDS011;22898;52.102;5.776;2022-08-19T09:21:12;7.43;;;5.60;;
36989;SDS011;22898;52.102;5.776;2022-08-19T09:23:38;8.65;;;6.15;;
36989;SDS011;22898;52.102;5.776;2022-08-19T09:26:08;10.77;;;5.05;;
36989;SDS011;22898;52.102;5.776;2022-08-19T09:28:42;10.23;;;6.40;;
36989;SDS011;22898;52.102;5.776;2022-08-19T09:31:16;13.02;;;7.22;;
36989;SDS011;22898;52.102;5.776;2022-08-19T09:33:47;7.07;;;5.18;;
36989;SDS011;22898;52.102;5.776;2022-08-19T09:36:15;8.55;;;5.38;;
36989;SDS011;22898;52.102;5.776;2022-08-19T09:38:43;8.88;;;4.65;;
36989;SDS011;22898;52.102;5.776;2022-08-19T09:41:11;8.15;;;5.72;;
36989;SDS011;22898;52.102;5.776;2022-08-19T09:43:39;7.90;;;4.47;;
36989;SDS011;22898;52.102;5.776;2022-08-19T09:46:06;9.10;;;7.07;;
36989;SDS011;22898;52.102;5.776;2022-08-19T09:48:34;9.80;;;5.38;;
36989;SDS011;22898;52.102;5.776;2022-08-19T09:51:07;7.88;;;5.30;;
36989;SDS011;22898;52.102;5.776;2022-08-19T09:53:36;7.90;;;5.03;;
36989;SDS011;22898;52.102;5.776;2022-08-19T09:56:04;7.10;;;4.80;;
36989;SDS011;22898;52.102;5.776;2022-08-19T09:58:30;4.55;;;3.72;;
36989;SDS011;22898;52.102;5.776;2022-08-19T10:00:58;7.55;;;5.18;;
36989;SDS011;22898;52.102;5.776;2022-08-19T10:03:25;8.02;;;4.65;;
36989;SDS011;22898;52.102;5.776;2022-08-19T10:05:51;7.40;;;5.05;;
36989;SDS011;22898;52.102;5.776;2022-08-19T10:08:27;8.85;;;5.88;;
36989;SDS011;22898;52.102;5.776;2022-08-19T10:10:55;10.43;;;5.18;;
36989;SDS011;22898;52.102;5.776;2022-08-19T10:13:23;5.57;;;4.55;;
36989;SDS011;22898;52.102;5.776;2022-08-19T10:15:55;6.57;;;4.20;;
36989;SDS011;22898;52.102;5.776;2022-08-19T10:18:27;5.95;;;4.18;;
36989;SDS011;22898;52.102;5.776;2022-08-19T10:21:01;8.70;;;5.45;;
36989;SDS011;22898;52.102;5.776;2022-08-19T10:23:35;7.45;;;5.47;;
36989;SDS011;22898;52.102;5.776;2022-08-19T10:26:03;7.85;;;5.00;;
36989;SDS011;22898;52.102;5.776;2022-08-19T10:28:30;9.25;;;4.88;;
36989;SDS011;22898;52.102;5.776;2022-08-19T10:31:06;8.07;;;5.28;;
36989;SDS011;22898;52.102;5.776;2022-08-19T10:33:45;6.22;;;4.05;;
36989;SDS011;22898;52.102;5.776;2022-08-19T10:36:13;5.30;;;4.57;;
36989;SDS011;22898;52.102;5.776;2022-08-19T10:38:45;5.63;;;4.10;;
36989;SDS011;22898;52.102;5.776;2022-08-19T10:41:15;9.82;;;5.38;;
36989;SDS011;22898;52.102;5.776;2022-08-19T10:43:47;4.83;;;3.93;;
36989;SDS011;22898;52.102;5.776;2022-08-19T10:46:15;5.20;;;3.60;;
36989;SDS011;22898;52.102;5.776;2022-08-19T10:48:41;5.47;;;3.30;;
36989;SDS011;22898;52.102;5.776;2022-08-19T10:51:08;6.65;;;4.15;;
36989;SDS011;22898;52.102;5.776;2022-08-19T10:53:54;7.25;;;4.65;;
36989;SDS011;22898;52.102;5.776;2022-08-19T10:56:20;10.95;;;4.32;;
36989;SDS011;22898;52.102;5.776;2022-08-19T10:59:05;8.63;;;3.83;;
36989;SDS011;22898;52.102;5.776;2022-08-19T11:01:31;7.38;;;4.53;;
36989;SDS011;22898;52.102;5.776;2022-08-19T11:03:59;5.93;;;3.50;;
36989;SDS011;22898;52.102;5.776;2022-08-19T11:06:26;4.70;;;3.35;;
36989;SDS011;22898;52.102;5.776;2022-08-19T11:08:53;3.97;;;3.08;;
36989;SDS011;22898;52.102;5.776;2022-08-19T11:11:20;6.60;;;3.33;;
36989;SDS011;22898;52.102;5.776;2022-08-19T11:13:46;5.95;;;4.13;;
36989;SDS011;22898;52.102;5.776;2022-08-19T11:16:16;3.58;;;2.67;;
36989;SDS011;22898;52.102;5.776;2022-08-19T11:18:45;6.65;;;3.60;;
36989;SDS011;22898;52.102;5.776;2022-08-19T11:21:23;6.60;;;4.03;;
36989;SDS011;22898;52.102;5.776;2022-08-19T11:23:52;5.68;;;2.85;;
36989;SDS011;22898;52.102;5.776;2022-08-19T11:26:19;4.50;;;3.22;;
36989;SDS011;22898;52.102;5.776;2022-08-19T11:28:46;4.05;;;2.85;;
36989;SDS011;22898;52.102;5.776;2022-08-19T11:31:12;6.25;;;4.35;;
36989;SDS011;22898;52.102;5.776;2022-08-19T11:33:39;4.07;;;2.75;;
36989;SDS011;22898;52.102;5.776;2022-08-19T11:36:05;3.58;;;3.13;;
36989;SDS011;22898;52.102;5.776;2022-08-19T11:38:32;6.13;;;3.78;;
36989;SDS011;22898;52.102;5.776;2022-08-19T11:41:00;4.28;;;3.35;;
36989;SDS011;22898;52.102;5.776;2022-08-19T11:43:27;4.90;;;3.83;;
36989;SDS011;22898;52.102;5.776;2022-08-19T11:45:53;5.68;;;4.13;;
36989;SDS011;22898;52.102;5.776;2022-08-19T11:48:20;5.10;;;3.15;;
36989;SDS011;22898;52.102;5.776;2022-08-19T11:50:47;6.65;;;3.33;;
36989;SDS011;22898;52.102;5.776;2022-08-19T11:53:13;5.25;;;3.38;;
36989;SDS011;22898;52.102;5.776;2022-08-19T11:55:39;5.07;;;3.33;;
36989;SDS011;22898;52.102;5.776;2022-08-19T11:58:05;5.97;;;3.45;;
36989;SDS011;22898;52.102;5.776;2022-08-19T12:00:32;5.22;;;3.90;;
36989;SDS011;22898;52.102;5.776;2022-08-19T12:03:00;3.97;;;2.85;;
36989;SDS011;22898;52.102;5.776;2022-08-19T12:05:26;3.67;;;3.00;;
36989;SDS011;22898;52.102;5.776;2022-08-19T12:07:52;4.63;;;3.40;;
36989;SDS011;22898;52.102;5.776;2022-08-19T12:10:19;6.53;;;3.97;;
36989;SDS011;22898;52.102;5.776;2022-08-19T12:12:45;5.00;;;3.97;;
36989;SDS011;22898;52.102;5.776;2022-08-19T12:15:10;3.95;;;3.03;;
36989;SDS011;22898;52.102;5.776;2022-08-19T12:17:36;9.25;;;4.85;;
36989;SDS011;22898;52.102;5.776;2022-08-19T12:20:03;6.60;;;4.57;;
36989;SDS011;22898;52.102;5.776;2022-08-19T12:22:30;9.75;;;4.43;;
36989;SDS011;22898;52.102;5.776;2022-08-19T12:24:56;7.30;;;3.80;;
36989;SDS011;22898;52.102;5.776;2022-08-19T12:27:22;7.90;;;4.80;;
36989;SDS011;22898;52.102;5.776;2022-08-19T12:29:47;5.15;;;4.05;;
36989;SDS011;22898;52.102;5.776;2022-08-19T12:32:13;5.20;;;3.42;;
36989;SDS011;22898;52.102;5.776;2022-08-19T12:34:40;4.80;;;3.60;;
36989;SDS011;22898;52.102;5.776;2022-08-19T12:37:06;4.68;;;3.55;;
36989;SDS011;22898;52.102;5.776;2022-08-19T12:39:39;7.32;;;4.13;;
36989;SDS011;22898;52.102;5.776;2022-08-19T12:42:09;5.85;;;3.80;;
36989;SDS011;22898;52.102;5.776;2022-08-19T12:44:38;7.50;;;4.30;;
36989;SDS011;22898;52.102;5.776;2022-08-19T12:47:05;5.80;;;3.85;;
36989;SDS011;22898;52.102;5.776;2022-08-19T12:49:32;6.65;;;4.72;;
36989;SDS011;22898;52.102;5.776;2022-08-19T12:52:05;8.00;;;4.18;;
36989;SDS011;22898;52.102;5.776;2022-08-19T12:54:32;5.35;;;3.80;;
36989;SDS011;22898;52.102;5.776;2022-08-19T12:56:59;12.38;;;4.10;;
36989;SDS011;22898;52.102;5.776;2022-08-19T12:59:25;6.70;;;4.55;;
36989;SDS011;22898;52.102;5.776;2022-08-19T13:01:51;6.07;;;4.45;;
36989;SDS011;22898;52.102;5.776;2022-08-19T13:04:17;7.88;;;4.65;;
36989;SDS011;22898;52.102;5.776;2022-08-19T13:06:43;5.47;;;3.38;;
36989;SDS011;22898;52.102;5.776;2022-08-19T13:09:09;8.13;;;3.92;;
36989;SDS011;22898;52.102;5.776;2022-08-19T13:11:36;7.32;;;4.22;;
36989;SDS011;22898;52.102;5.776;2022-08-19T13:14:02;4.82;;;3.65;;
36989;SDS011;22898;52.102;5.776;2022-08-19T13:16:29;6.35;;;4.03;;
36989;SDS011;22898;52.102;5.776;2022-08-19T13:18:55;4.85;;;3.78;;
36989;SDS011;22898;52.102;5.776;2022-08-19T13:21:23;6.70;;;3.97;;
36989;SDS011;22898;52.102;5.776;2022-08-19T13:23:51;5.82;;;3.90;;
36989;SDS011;22898;52.102;5.776;2022-08-19T13:26:17;5.38;;;3.92;;
36989;SDS011;22898;52.102;5.776;2022-08-19T13:28:44;4.97;;;3.72;;
36989;SDS011;22898;52.102;5.776;2022-08-19T13:31:29;5.82;;;4.07;;
36989;SDS011;22898;52.102;5.776;2022-08-19T13:34:16;5.93;;;3.33;;
36989;SDS011;22898;52.102;5.776;2022-08-19T13:36:44;4.03;;;3.55;;
36989;SDS011;22898;52.102;5.776;2022-08-19T13:39:09;4.63;;;3.63;;
36989;SDS011;22898;52.102;5.776;2022-08-19T13:41:36;6.22;;;3.63;;
36989;SDS011;22898;52.102;5.776;2022-08-19T13:44:03;6.70;;;4.95;;
36989;SDS011;22898;52.102;5.776;2022-08-19T13:46:29;5.75;;;4.28;;
36989;SDS011;22898;52.102;5.776;2022-08-19T13:48:56;7.78;;;4.32;;
36989;SDS011;22898;52.102;5.776;2022-08-19T13:51:21;9.15;;;5.30;;
36989;SDS011;22898;52.102;5.776;2022-08-19T13:53:47;8.82;;;4.65;;
36989;SDS011;22898;52.102;5.776;2022-08-19T13:56:15;7.93;;;4.82;;
36989;SDS011;22898;52.102;5.776;2022-08-19T13:58:43;7.88;;;6.40;;
36989;SDS011;22898;52.102;5.776;2022-08-19T14:01:09;9.30;;;6.45;;
36989;SDS011;22898;52.102;5.776;2022-08-19T14:03:35;7.72;;;5.18;;
36989;SDS011;22898;52.102;5.776;2022-08-19T14:06:01;9.05;;;6.07;;
36989;SDS011;22898;52.102;5.776;2022-08-19T14:08:27;18.13;;;5.82;;
36989;SDS011;22898;52.102;5.776;2022-08-19T14:10:56;9.32;;;5.45;;
36989;SDS011;22898;52.102;5.776;2022-08-19T14:13:23;10.32;;;6.22;;
36989;SDS011;22898;52.102;5.776;2022-08-19T14:15:48;7.85;;;6.00;;
36989;SDS011;22898;52.102;5.776;2022-08-19T14:18:15;6.50;;;5.45;;
36989;SDS011;22898;52.102;5.776;2022-08-19T14:20:42;8.20;;;5.18;;
36989;SDS011;22898;52.102;5.776;2022-08-19T14:23:08;5.38;;;4.60;;
36989;SDS011;22898;52.102;5.776;2022-08-19T14:25:33;11.50;;;5.15;;
36989;SDS011;22898;52.102;5.776;2022-08-19T14:27:59;5.57;;;4.20;;
36989;SDS011;22898;52.102;5.776;2022-08-19T14:30:27;7.57;;;4.72;;
36989;SDS011;22898;52.102;5.776;2022-08-19T14:32:54;6.30;;;5.05;;
36989;SDS011;22898;52.102;5.776;2022-08-19T14:35:21;7.80;;;5.28;;
36989;SDS011;22898;52.102;5.776;2022-08-19T14:37:48;6.50;;;4.28;;
36989;SDS011;22898;52.102;5.776;2022-08-19T14:40:15;17.02;;;7.07;;
36989;SDS011;22898;52.102;5.776;2022-08-19T14:42:45;6.25;;;4.10;;
36989;SDS011;22898;52.102;5.776;2022-08-19T14:45:11;5.40;;;4.07;;
36989;SDS011;22898;52.102;5.776;2022-08-19T14:47:37;9.35;;;4.70;;
36989;SDS011;22898;52.102;5.776;2022-08-19T14:50:05;5.40;;;3.67;;
36989;SDS011;22898;52.102;5.776;2022-08-19T14:52:31;4.50;;;2.92;;
36989;SDS011;22898;52.102;5.776;2022-08-19T14:54:57;3.38;;;2.65;;
36989;SDS011;22898;52.102;5.776;2022-08-19T14:57:23;3.92;;;3.53;;
36989;SDS011;22898;52.102;5.776;2022-08-19T14:59:48;8.60;;;4.35;;
36989;SDS011;22898;52.102;5.776;2022-08-19T15:02:14;3.25;;;2.83;;
36989;SDS011;22898;52.102;5.776;2022-08-19T15:04:39;4.45;;;2.97;;
36989;SDS011;22898;52.102;5.776;2022-08-19T15:07:05;3.47;;;2.95;;